Time;durP1;ratioP1;P1;durP2;ratioP2;P2;SDS_P1;SDS_P2;PMS_P1;PMS_P2;Temp;Humidity;BMP_temperature;BMP_pressure;BME280_temperature;BME280_humidity;BME280_pressure;Samples;Min_cycle;Max_cycle;Signal;HPM_P1;HPM_P2
2023/09/14 00:00:42;;;;;;;16.43;6.53;;;;;;;19.69;67.53;95353.56;5073091;28;20624;-78
2023/09/14 00:03:08;;;;;;;14.83;6.40;;;;;;;19.59;68.06;95356.88;5039758;28;20324;-77
2023/09/14 00:05:41;;;;;;;17.17;6.70;;;;;;;19.56;68.07;95356.56;5055074;28;20247;-77
2023/09/14 00:08:06;;;;;;;12.53;6.20;;;;;;;19.74;67.37;95357.09;5057454;28;20236;-77
2023/09/14 00:10:32;;;;;;;16.70;6.03;;;;;;;19.87;67.42;95361.25;5073504;28;20231;-77
2023/09/14 00:12:58;;;;;;;13.40;6.30;;;;;;;19.77;67.79;95359.25;5052388;28;20680;-77
2023/09/14 00:15:24;;;;;;;13.87;6.43;;;;;;;19.58;68.07;95354.47;5042270;28;20229;-77
2023/09/14 00:17:49;;;;;;;14.93;6.23;;;;;;;19.71;67.65;95360.22;5054884;28;20992;-77
2023/09/14 00:20:22;;;;;;;11.97;5.97;;;;;;;19.73;67.68;95360.78;5054172;28;20282;-77
2023/09/14 00:22:49;;;;;;;16.17;6.10;;;;;;;19.76;67.75;95362.97;5040967;28;20224;-77
2023/09/14 00:25:15;;;;;;;11.57;6.13;;;;;;;19.71;68.26;95354.09;5040869;28;20250;-77
2023/09/14 00:27:40;;;;;;;11.50;5.93;;;;;;;19.59;68.87;95356.88;5067800;28;20620;-76
2023/09/14 00:30:06;;;;;;;14.13;6.53;;;;;;;19.52;68.87;95356.25;5056688;28;20287;-77
2023/09/14 00:32:38;;;;;;;12.27;6.00;;;;;;;19.50;69.30;95363.66;5067228;28;20229;-77
2023/09/14 00:35:05;;;;;;;14.93;6.43;;;;;;;19.29;70.26;95362.53;5064249;28;20229;-77
2023/09/14 00:37:31;;;;;;;13.60;6.53;;;;;;;19.51;69.19;95364.47;5054207;28;20242;-77
2023/09/14 00:39:56;;;;;;;11.13;6.30;;;;;;;19.57;69.32;95369.59;5075521;28;20612;-77
2023/09/14 00:42:22;;;;;;;14.80;6.50;;;;;;;19.54;69.56;95370.06;5071128;28;20311;-77
2023/09/14 00:44:47;;;;;;;14.37;6.60;;;;;;;19.29;70.55;95365.19;5065316;28;20232;-77
2023/09/14 00:47:13;;;;;;;14.07;6.70;;;;;;;19.22;70.68;95363.75;5051079;28;20232;-77
2023/09/14 00:49:38;;;;;;;13.93;6.67;;;;;;;19.26;70.85;95365.66;5048094;28;20228;-77
2023/09/14 00:52:04;;;;;;;15.63;6.50;;;;;;;19.13;70.98;95359.88;5053686;28;20239;-72
2023/09/14 00:54:30;;;;;;;12.73;6.60;;;;;;;19.02;71.72;95358.09;5054929;28;20231;-73
2023/09/14 00:56:55;;;;;;;12.80;6.70;;;;;;;18.86;72.24;95350.94;5068156;28;20256;-73
2023/09/14 00:59:21;;;;;;;14.33;6.40;;;;;;;18.83;72.35;95360.16;5069696;28;20263;-73
2023/09/14 01:01:47;;;;;;;14.13;7.23;;;;;;;18.83;72.26;95358.34;5044829;28;20232;-72
2023/09/14 01:04:12;;;;;;;13.53;6.30;;;;;;;18.80;72.73;95360.66;5054903;28;21068;-72
2023/09/14 01:06:38;;;;;;;15.47;6.50;;;;;;;18.95;72.15;95368.06;5070984;28;20225;-72
2023/09/14 01:09:05;;;;;;;13.13;6.40;;;;;;;18.65;73.14;95361.19;5052603;28;20224;-72
2023/09/14 01:11:30;;;;;;;12.37;6.60;;;;;;;18.87;72.55;95357.88;5050477;28;20315;-73
2023/09/14 01:14:08;;;;;;;17.37;6.53;;;;;;;19.02;71.98;95350.13;5052464;28;20327;-72
2023/09/14 01:16:45;;;;;;;14.67;6.37;;;;;;;18.78;72.63;95344.97;5062404;28;20225;-73
2023/09/14 01:19:40;;;;;;;11.30;6.27;;;;;;;18.84;72.83;95345.88;5036616;28;20236;-73
2023/09/14 01:22:29;;;;;;;12.67;6.23;;;;;;;19.04;72.25;95343.53;5056407;28;20229;-73
2023/09/14 01:28:16;;;;;;;14.97;6.60;;;;;;;19.00;72.16;95357.53;5062628;28;20252;-72
2023/09/14 01:30:42;;;;;;;14.13;6.80;;;;;;;18.99;72.33;95361.22;5048151;28;20237;-72
2023/09/14 01:33:10;;;;;;;13.30;6.63;;;;;;;19.10;71.88;95358.50;5054360;28;20431;-73
2023/09/14 01:35:52;;;;;;;12.90;6.30;;;;;;;18.83;73.51;95363.63;5064574;28;20315;-72
2023/09/14 01:38:17;;;;;;;18.40;6.50;;;;;;;18.82;73.48;95361.19;5064042;28;20243;-73
2023/09/14 01:40:44;;;;;;;11.57;6.47;;;;;;;18.58;74.22;95363.19;5046517;28;20698;-75
2023/09/14 01:43:09;;;;;;;12.67;6.60;;;;;;;18.64;73.80;95364.09;5073490;28;21011;-74
2023/09/14 01:45:35;;;;;;;14.17;6.57;;;;;;;18.74;73.75;95362.44;5035114;28;20229;-74
2023/09/14 01:48:00;;;;;;;12.23;6.63;;;;;;;18.55;74.93;95363.69;5072426;28;20299;-74
2023/09/14 01:50:26;;;;;;;15.83;6.80;;;;;;;18.76;73.55;95368.28;5052209;28;20236;-74
2023/09/14 01:52:53;;;;;;;13.60;6.73;;;;;;;18.74;74.14;95361.63;5046835;28;20237;-74
2023/09/14 01:55:19;;;;;;;16.33;7.17;;;;;;;18.68;74.10;95363.38;5047484;28;20310;-74
2023/09/14 01:57:45;;;;;;;13.07;6.70;;;;;;;18.82;74.05;95363.84;5068915;28;20236;-75
2023/09/14 02:00:11;;;;;;;15.53;6.73;;;;;;;18.75;74.14;95366.66;5047741;28;20244;-74
2023/09/14 02:02:36;;;;;;;17.37;6.80;;;;;;;18.70;74.28;95371.09;5069355;28;20604;-74
2023/09/14 02:05:02;;;;;;;15.40;6.90;;;;;;;18.56;74.89;95365.28;5067046;28;20612;-74
2023/09/14 02:07:28;;;;;;;10.63;6.50;;;;;;;18.59;74.39;95372.75;5061878;28;20226;-72
2023/09/14 02:09:53;;;;;;;13.67;6.53;;;;;;;18.69;73.86;95366.81;5051456;28;20281;-72
2023/09/14 02:12:24;;;;;;;14.30;6.80;;;;;;;18.78;72.41;95362.75;5055816;28;20244;-73
2023/09/14 02:14:50;;;;;;;14.10;7.07;;;;;;;18.70;72.65;95371.09;5053209;28;20648;-73
2023/09/14 02:17:16;;;;;;;13.70;6.57;;;;;;;18.79;72.55;95364.34;5052284;28;20271;-73
2023/09/14 02:19:42;;;;;;;10.63;6.53;;;;;;;18.78;71.89;95358.25;5053798;28;20244;-73
2023/09/14 02:22:08;;;;;;;18.43;6.43;;;;;;;18.91;71.63;95372.25;5051459;28;20251;-73
2023/09/14 02:24:33;;;;;;;13.00;6.60;;;;;;;18.75;71.84;95365.84;5074510;28;20232;-73
2023/09/14 02:26:58;;;;;;;12.50;6.83;;;;;;;18.73;71.60;95375.91;5048042;28;20252;-73
2023/09/14 02:29:24;;;;;;;13.37;7.13;;;;;;;18.70;71.53;95374.53;5056907;28;20240;-73
2023/09/14 02:31:49;;;;;;;17.90;6.40;;;;;;;18.53;72.73;95372.91;5070598;28;20232;-73
2023/09/14 02:34:15;;;;;;;15.90;6.53;;;;;;;18.58;72.01;95381.75;5071335;28;20235;-71
2023/09/14 02:36:40;;;;;;;16.53;7.07;;;;;;;18.50;72.33;95371.53;5071400;28;20228;-73
2023/09/14 02:39:06;;;;;;;13.10;6.90;;;;;;;18.40;73.26;95371.31;5054977;28;20229;-73
2023/09/14 02:41:31;;;;;;;12.07;6.43;;;;;;;18.47;73.06;95364.03;5050560;28;20229;-73
2023/09/14 02:43:57;;;;;;;16.83;7.20;;;;;;;18.60;72.42;95358.47;5052119;28;20305;-73
2023/09/14 02:46:22;;;;;;;14.83;6.77;;;;;;;18.49;73.78;95361.16;5053749;28;20232;-72
2023/09/14 02:48:48;;;;;;;15.50;7.43;;;;;;;18.34;74.59;95358.97;5045518;28;20289;-73
2023/09/14 02:51:13;;;;;;;16.03;7.20;;;;;;;18.47;74.50;95348.13;5065161;28;20235;-73
2023/09/14 02:53:39;;;;;;;15.57;7.40;;;;;;;18.48;74.22;95357.72;5055148;28;20266;-73
2023/09/14 02:56:09;;;;;;;13.83;7.37;;;;;;;18.27;75.12;95358.31;5052890;28;20244;-72
2023/09/14 02:58:35;;;;;;;15.43;7.57;;;;;;;18.40;74.55;95349.28;5063185;28;20734;-73
2023/09/14 03:01:08;;;;;;;14.57;7.13;;;;;;;18.41;75.04;95345.59;5047934;28;20259;-73
2023/09/14 03:03:33;;;;;;;15.97;7.10;;;;;;;18.33;75.35;95345.97;5034640;28;20243;-72
2023/09/14 03:05:59;;;;;;;17.07;7.30;;;;;;;18.37;75.04;95358.53;5049197;28;20232;-72
2023/09/14 03:08:24;;;;;;;14.97;7.23;;;;;;;18.27;75.70;95358.31;5036887;28;20302;-73
2023/09/14 03:10:50;;;;;;;17.40;7.40;;;;;;;18.15;76.35;95358.38;5046715;28;20645;-73
2023/09/14 03:13:15;;;;;;;16.93;7.53;;;;;;;18.18;75.63;95357.09;5067799;28;20255;-73
2023/09/14 03:15:41;;;;;;;16.27;7.23;;;;;;;18.34;74.93;95353.69;5049232;28;20666;-74
2023/09/14 03:18:06;;;;;;;15.47;7.10;;;;;;;18.12;76.24;95363.34;5067229;28;20255;-73
2023/09/14 03:20:32;;;;;;;18.97;7.43;;;;;;;18.14;75.95;95362.06;5052667;28;20299;-73
2023/09/14 03:22:59;;;;;;;13.53;7.23;;;;;;;18.29;75.33;95366.88;5052924;28;20227;-72
2023/09/14 03:25:24;;;;;;;15.90;7.70;;;;;;;18.23;76.06;95370.44;5066444;28;20263;-73
2023/09/14 03:27:50;;;;;;;18.00;7.53;;;;;;;18.35;75.57;95363.25;5072167;28;20232;-73
2023/09/14 03:30:15;;;;;;;17.87;7.27;;;;;;;18.30;76.28;95368.47;5053549;28;20286;-72
2023/09/14 03:32:40;;;;;;;16.23;7.10;;;;;;;18.06;76.83;95369.56;5056179;28;20239;-73
2023/09/14 03:35:06;;;;;;;16.43;7.57;;;;;;;18.23;76.28;95364.31;5069653;28;20321;-72
2023/09/14 03:37:32;;;;;;;17.57;7.47;;;;;;;18.26;76.49;95363.88;5049761;28;20236;-73
2023/09/14 03:39:57;;;;;;;15.80;7.90;;;;;;;18.15;76.83;95354.91;5050942;28;20233;-73
2023/09/14 03:42:22;;;;;;;16.30;7.80;;;;;;;18.28;76.81;95364.44;5054049;28;20241;-73
2023/09/14 03:44:48;;;;;;;20.60;7.80;;;;;;;18.19;77.12;95366.66;5060240;28;20223;-73
2023/09/14 03:47:13;;;;;;;15.00;7.57;;;;;;;18.16;77.02;95367.94;5051194;28;20239;-73
2023/09/14 03:49:39;;;;;;;16.20;7.77;;;;;;;18.12;77.33;95361.50;5053504;28;20237;-72
2023/09/14 03:52:04;;;;;;;20.40;7.83;;;;;;;18.21;77.05;95371.72;5058000;28;20240;-73
2023/09/14 03:54:30;;;;;;;18.17;8.00;;;;;;;18.01;77.71;95369.47;5048924;28;20228;-73
2023/09/14 03:56:55;;;;;;;15.67;7.70;;;;;;;18.14;77.89;95371.84;5053941;28;20228;-73
2023/09/14 03:59:21;;;;;;;21.67;7.83;;;;;;;18.21;76.75;95369.06;5070366;28;20301;-73
2023/09/14 04:01:47;;;;;;;14.90;7.43;;;;;;;18.15;76.56;95376.09;5043171;28;20220;-73
2023/09/14 04:04:13;;;;;;;16.53;7.67;;;;;;;18.31;76.17;95380.69;5073606;28;20231;-73
2023/09/14 04:06:38;;;;;;;15.17;7.13;;;;;;;18.39;75.02;95382.16;5069857;28;20301;-71
2023/09/14 04:09:04;;;;;;;18.63;7.80;;;;;;;18.29;75.39;95381.97;5058331;28;20240;-73
2023/09/14 04:11:29;;;;;;;16.43;7.73;;;;;;;17.99;76.33;95382.13;5070549;28;20259;-72
2023/09/14 04:13:56;;;;;;;16.47;7.57;;;;;;;17.94;76.23;95372.25;5076894;28;20237;-72
2023/09/14 04:16:21;;;;;;;18.97;7.17;;;;;;;17.90;76.11;95380.91;5048007;28;20233;-73
2023/09/14 04:18:47;;;;;;;16.50;7.17;;;;;;;18.21;74.78;95383.13;5076918;28;20653;-73
2023/09/14 04:21:12;;;;;;;16.40;7.07;;;;;;;18.15;74.81;95386.69;5076869;28;20247;-73
2023/09/14 04:23:38;;;;;;;16.83;7.30;;;;;;;18.25;74.69;95389.56;5051483;28;20217;-74
2023/09/14 04:26:04;;;;;;;17.80;7.30;;;;;;;18.30;73.69;95394.97;5069870;28;20229;-74
2023/09/14 04:28:30;;;;;;;17.53;6.87;;;;;;;18.17;74.18;95385.44;5051345;28;21003;-73
2023/09/14 04:30:58;;;;;;;21.53;7.43;;;;;;;18.20;74.04;95394.75;5046522;28;20733;-74
2023/09/14 04:33:23;;;;;;;15.93;7.03;;;;;;;18.13;74.38;95386.13;5059575;28;20247;-73
2023/09/14 04:35:49;;;;;;;18.33;7.30;;;;;;;17.89;75.52;95393.31;5052125;28;20226;-73
2023/09/14 04:38:14;;;;;;;16.30;7.50;;;;;;;17.98;75.54;95396.44;5047670;28;20236;-73
2023/09/14 04:40:41;;;;;;;20.13;7.47;;;;;;;18.13;74.97;95392.25;5065681;28;20248;-73
2023/09/14 04:43:07;;;;;;;17.70;7.07;;;;;;;18.17;74.48;95397.88;5049062;28;20243;-74
2023/09/14 04:45:33;;;;;;;17.67;7.20;;;;;;;18.09;74.65;95392.94;5053182;28;20303;-73
2023/09/14 04:47:59;;;;;;;18.67;6.80;;;;;;;18.06;74.74;95394.22;5068950;28;20343;-74
2023/09/14 04:50:25;;;;;;;15.50;7.07;;;;;;;18.17;74.49;95395.25;5067028;28;20232;-74
2023/09/14 04:52:50;;;;;;;16.87;7.33;;;;;;;18.22;74.37;95391.88;5035199;28;20256;-74
2023/09/14 04:55:15;;;;;;;18.20;7.33;;;;;;;18.14;74.24;95395.69;5067480;28;20236;-74
2023/09/14 04:57:41;;;;;;;13.93;7.63;;;;;;;18.24;73.74;95401.22;5067473;28;20446;-75
2023/09/14 05:00:09;;;;;;;18.07;7.17;;;;;;;18.37;73.40;95405.41;5069356;28;20235;-75
2023/09/14 05:02:35;;;;;;;19.40;7.63;;;;;;;18.26;73.45;95399.13;5047200;28;20236;-74
2023/09/14 05:05:01;;;;;;;17.83;7.17;;;;;;;18.33;73.69;95398.97;5040768;28;20236;-74
2023/09/14 05:07:26;;;;;;;17.33;7.50;;;;;;;18.50;72.40;95405.19;5065779;28;20318;-74
2023/09/14 05:09:52;;;;;;;23.27;7.97;;;;;;;18.61;72.41;95405.13;5062821;28;20229;-74
2023/09/14 05:12:17;;;;;;;21.27;8.23;;;;;;;18.53;72.70;95408.16;5053505;28;20322;-74
2023/09/14 05:14:43;;;;;;;20.43;7.73;;;;;;;18.46;73.03;95407.50;5071320;28;20292;-75
2023/09/14 05:17:08;;;;;;;21.53;7.60;;;;;;;18.71;72.27;95410.63;5057876;28;20240;-74
2023/09/14 05:19:34;;;;;;;19.03;7.87;;;;;;;18.76;72.32;95420.53;5052251;28;20235;-74
2023/09/14 05:21:59;;;;;;;21.17;7.87;;;;;;;18.85;72.02;95408.47;5064667;28;20228;-74
2023/09/14 05:24:25;;;;;;;21.43;8.37;;;;;;;18.99;71.26;95411.63;5038601;28;20240;-74
2023/09/14 05:26:51;;;;;;;24.13;8.50;;;;;;;19.00;71.30;95411.41;5053869;28;20272;-73
2023/09/14 05:29:16;;;;;;;18.73;8.20;;;;;;;19.06;71.42;95409.66;5051342;28;20233;-74
2023/09/14 05:31:42;;;;;;;20.57;8.43;;;;;;;18.99;71.98;95406.31;5050026;28;20597;-74
2023/09/14 05:34:07;;;;;;;19.00;8.70;;;;;;;19.04;71.28;95401.09;5051571;28;20316;-74
2023/09/14 05:36:33;;;;;;;21.90;8.87;;;;;;;19.13;71.63;95408.44;5050942;28;20228;-74
2023/09/14 05:38:59;;;;;;;19.93;8.27;;;;;;;19.02;72.42;95404.00;5034249;28;20251;-74
2023/09/14 05:41:24;;;;;;;20.47;8.60;;;;;;;19.21;70.61;95410.69;5044067;28;20229;-74
2023/09/14 05:43:50;;;;;;;18.77;8.83;;;;;;;19.19;70.31;95411.97;5041658;28;20233;-78
2023/09/14 05:46:15;;;;;;;20.53;8.33;;;;;;;19.13;71.78;95407.66;5059688;28;20264;-78
2023/09/14 05:48:40;;;;;;;23.10;8.63;;;;;;;19.11;72.56;95412.38;5059504;28;20248;-77
2023/09/14 05:51:06;;;;;;;20.60;8.47;;;;;;;19.35;70.44;95408.53;5054016;28;20718;-78
2023/09/14 05:53:31;;;;;;;20.83;8.33;;;;;;;19.32;70.02;95407.16;5058310;28;20710;-78
2023/09/14 05:55:57;;;;;;;26.13;9.37;;;;;;;19.46;69.68;95403.16;5055746;28;20297;-78
2023/09/14 05:58:23;;;;;;;24.33;8.50;;;;;;;19.53;69.88;95418.94;5038751;28;20856;-77
2023/09/14 06:00:48;;;;;;;20.20;8.63;;;;;;;19.55;68.76;95408.88;5069550;28;20228;-77
2023/09/14 06:03:14;;;;;;;23.20;8.77;;;;;;;19.61;68.66;95415.84;5065036;28;20240;-78
2023/09/14 06:05:39;;;;;;;22.80;8.90;;;;;;;19.46;68.42;95410.34;5050835;28;20292;-77
2023/09/14 06:08:05;;;;;;;25.50;8.60;;;;;;;19.63;68.76;95410.31;5051766;28;20228;-78
2023/09/14 06:10:30;;;;;;;23.53;8.70;;;;;;;19.67;68.05;95401.63;5052941;28;20676;-78
2023/09/14 06:12:56;;;;;;;23.47;8.90;;;;;;;19.85;67.97;95398.69;5066921;28;20720;-78
2023/09/14 06:15:23;;;;;;;24.43;9.27;;;;;;;19.92;67.11;95404.63;5050951;28;20244;-79
2023/09/14 06:17:48;;;;;;;19.63;9.53;;;;;;;19.87;67.41;95403.75;5059290;28;20285;-77
2023/09/14 06:20:14;;;;;;;28.13;9.67;;;;;;;19.89;67.21;95394.50;5040983;28;20285;-78
2023/09/14 06:22:39;;;;;;;23.70;10.10;;;;;;;19.89;67.05;95405.13;5067081;28;20818;-78
2023/09/14 06:25:05;;;;;;;30.73;9.63;;;;;;;19.98;66.61;95406.31;5035916;28;20229;-78
2023/09/14 06:27:30;;;;;;;22.37;9.60;;;;;;;19.92;67.38;95407.28;5037181;28;20233;-77
2023/09/14 06:29:56;;;;;;;22.67;10.27;;;;;;;20.01;66.64;95405.78;5060191;28;20241;-78
2023/09/14 06:32:21;;;;;;;26.23;12.30;;;;;;;20.08;67.28;95411.72;5063387;28;20706;-78
2023/09/14 06:34:47;;;;;;;24.57;11.50;;;;;;;20.07;66.79;95407.47;5053840;28;20229;-78
2023/09/14 06:37:13;;;;;;;27.40;10.40;;;;;;;20.09;67.40;95413.34;5051511;28;20279;-78
2023/09/14 06:39:38;;;;;;;25.33;10.17;;;;;;;20.03;67.01;95419.66;5033504;28;20987;-78
2023/09/14 06:42:04;;;;;;;27.63;10.27;;;;;;;20.13;66.68;95419.78;5065701;28;20240;-78
2023/09/14 06:44:30;;;;;;;23.83;9.60;;;;;;;20.15;66.92;95431.00;5051268;28;20242;-78
2023/09/14 06:46:55;;;;;;;29.13;10.57;;;;;;;20.02;66.88;95420.69;5071899;28;20240;-77
2023/09/14 06:49:21;;;;;;;31.03;10.60;;;;;;;20.13;66.74;95437.59;5043214;28;20231;-78
2023/09/14 06:51:47;;;;;;;30.07;11.13;;;;;;;20.24;66.13;95439.38;5044015;28;20274;-78
2023/09/14 06:54:12;;;;;;;28.03;10.90;;;;;;;20.25;66.34;95435.66;5048441;28;20243;-78
2023/09/14 06:56:38;;;;;;;26.50;11.03;;;;;;;20.44;66.51;95433.50;5060032;28;20236;-78
2023/09/14 06:59:03;;;;;;;24.83;10.70;;;;;;;20.52;65.84;95430.38;5042362;28;20237;-78
2023/09/14 07:01:29;;;;;;;27.67;10.70;;;;;;;20.61;66.42;95439.56;5038493;28;20230;-78
2023/09/14 07:03:54;;;;;;;28.17;10.10;;;;;;;20.76;64.34;95432.53;5032756;28;20323;-78
2023/09/14 07:06:20;;;;;;;30.33;11.03;;;;;;;20.85;64.36;95438.19;5063149;28;20274;-78
2023/09/14 07:08:45;;;;;;;30.67;12.63;;;;;;;20.90;63.43;95432.16;5051532;28;20228;-78
2023/09/14 07:11:12;;;;;;;26.73;10.37;;;;;;;20.93;62.99;95435.09;5062764;28;20299;-78
2023/09/14 07:13:37;;;;;;;26.57;9.30;;;;;;;20.98;61.77;95445.00;5055144;28;20238;-74
2023/09/14 07:16:03;;;;;;;25.33;10.07;;;;;;;21.04;62.03;95436.78;5055348;28;20615;-74
2023/09/14 07:18:33;;;;;;;25.33;9.43;;;;;;;21.06;61.73;95440.06;5065540;28;20722;-74
2023/09/14 07:20:59;;;;;;;25.07;9.30;;;;;;;20.98;61.29;95435.16;5026754;28;20260;-73
2023/09/14 07:23:24;;;;;;;27.47;9.80;;;;;;;21.07;61.12;95433.66;5045235;28;20244;-74
2023/09/14 07:25:50;;;;;;;25.23;9.47;;;;;;;21.18;60.54;95435.38;5052422;28;20255;-74
2023/09/14 07:28:17;;;;;;;27.30;8.83;;;;;;;21.24;60.34;95441.53;5021883;28;20293;-74
2023/09/14 07:30:42;;;;;;;24.83;8.77;;;;;;;21.28;59.38;95434.69;5027773;28;20237;-73
2023/09/14 07:33:09;;;;;;;19.77;8.40;;;;;;;21.35;59.53;95437.94;5060932;28;20587;-74
2023/09/14 07:35:35;;;;;;;24.50;8.43;;;;;;;21.44;59.28;95445.19;5041098;28;20229;-74
2023/09/14 07:38:00;;;;;;;23.83;9.43;;;;;;;21.47;59.42;95452.66;5056118;28;20248;-74
2023/09/14 07:40:26;;;;;;;22.57;9.40;;;;;;;21.48;59.92;95451.63;5033778;28;20277;-73
2023/09/14 07:42:51;;;;;;;26.40;9.00;;;;;;;21.45;59.31;95449.47;5032763;28;21034;-74
2023/09/14 07:45:17;;;;;;;23.53;8.50;;;;;;;21.61;59.01;95452.25;5071280;28;20221;-74
2023/09/14 07:47:42;;;;;;;30.07;9.03;;;;;;;21.61;59.22;95454.91;5058062;28;20294;-74
2023/09/14 07:50:08;;;;;;;24.50;8.60;;;;;;;21.71;58.56;95452.34;5047459;28;20227;-74
2023/09/14 07:52:34;;;;;;;24.97;8.47;;;;;;;21.82;57.62;95441.47;5065003;28;20228;-74
2023/09/14 07:55:00;;;;;;;23.10;8.80;;;;;;;21.98;57.48;95437.06;5062746;28;20231;-74
2023/09/14 07:57:25;;;;;;;24.37;8.07;;;;;;;22.07;57.74;95441.66;5066908;28;20845;-74
2023/09/14 07:59:52;;;;;;;29.13;8.53;;;;;;;22.11;57.47;95444.63;5073492;28;20224;-74
2023/09/14 08:02:17;;;;;;;23.20;8.13;;;;;;;22.14;57.53;95438.75;5067910;28;20252;-74
2023/09/14 08:04:43;;;;;;;27.63;8.17;;;;;;;22.29;56.72;95436.19;5071149;28;20225;-75
2023/09/14 08:07:09;;;;;;;25.37;7.50;;;;;;;22.33;56.06;95437.25;5030109;28;20236;-73
2023/09/14 08:09:34;;;;;;;29.33;7.43;;;;;;;22.40;56.08;95435.16;5054775;28;20253;-74
2023/09/14 08:11:59;;;;;;;22.03;7.50;;;;;;;22.48;55.83;95425.84;5064896;28;20232;-74
2023/09/14 08:14:25;;;;;;;22.20;7.87;;;;;;;22.59;54.97;95433.63;5067311;28;20314;-74
2023/09/14 08:16:50;;;;;;;21.70;6.87;;;;;;;22.65;54.23;95432.63;5035357;28;20228;-74
2023/09/14 08:19:16;;;;;;;25.08;6.90;;;;;;;22.82;53.66;95421.72;5053751;28;20901;-74
2023/09/14 08:21:42;;;;;;;21.07;6.70;;;;;;;22.82;53.52;95426.25;5043589;28;20835;-74
2023/09/14 08:24:07;;;;;;;22.23;6.27;;;;;;;22.93;52.44;95426.03;5068716;28;20221;-74
2023/09/14 08:26:33;;;;;;;21.92;7.15;;;;;;;22.99;53.03;95427.66;5062223;28;20224;-73
2023/09/14 08:28:58;;;;;;;18.50;6.73;;;;;;;23.10;52.47;95423.09;5070354;28;20320;-74
2023/09/14 08:31:24;;;;;;;18.83;7.30;;;;;;;23.21;52.94;95416.72;5037579;28;20239;-74
2023/09/14 08:33:49;;;;;;;16.90;7.03;;;;;;;23.24;53.22;95416.97;5065393;28;20232;-74
2023/09/14 08:36:15;;;;;;;20.60;7.20;;;;;;;23.29;52.61;95416.19;5037138;28;20228;-73
2023/09/14 08:38:41;;;;;;;28.55;7.80;;;;;;;23.29;51.96;95410.84;5036077;28;20243;-74
2023/09/14 08:41:15;;;;;;;20.27;6.80;;;;;;;23.39;51.88;95416.22;5054527;28;20240;-74
2023/09/14 08:43:40;;;;;;;26.73;7.13;;;;;;;23.52;51.15;95410.38;5056166;28;20233;-74
2023/09/14 08:46:06;;;;;;;16.23;6.88;;;;;;;23.59;51.23;95412.75;5036281;28;20239;-74
2023/09/14 08:48:32;;;;;;;21.27;8.13;;;;;;;23.67;51.61;95418.34;5040761;28;20727;-74
2023/09/14 08:50:58;;;;;;;25.08;9.05;;;;;;;23.77;51.01;95415.66;5065509;28;20225;-74
2023/09/14 08:53:24;;;;;;;23.17;7.15;;;;;;;23.87;50.87;95401.50;5028425;28;20232;-74
2023/09/14 08:55:51;;;;;;;25.77;6.85;;;;;;;23.91;51.00;95406.03;5027239;28;20235;-74
2023/09/14 08:58:16;;;;;;;21.60;7.05;;;;;;;24.05;50.34;95396.34;5044825;28;20233;-74
2023/09/14 09:00:42;;;;;;;20.55;7.00;;;;;;;24.14;49.85;95398.50;5061808;28;20229;-74
2023/09/14 09:03:07;;;;;;;21.20;7.05;;;;;;;24.15;50.26;95392.06;5054168;28;20270;-74
2023/09/14 09:05:33;;;;;;;16.45;7.07;;;;;;;24.33;50.37;95396.84;5047976;28;20224;-74
2023/09/14 09:07:59;;;;;;;21.70;7.28;;;;;;;24.30;50.36;95389.34;5033608;28;20235;-74
2023/09/14 09:10:28;;;;;;;23.73;7.25;;;;;;;24.38;49.73;95383.44;5048708;28;20242;-74
2023/09/14 09:12:58;;;;;;;21.80;7.43;;;;;;;24.38;49.65;95378.09;5065436;28;20843;-73
2023/09/14 09:15:24;;;;;;;26.25;7.32;;;;;;;24.42;49.52;95368.44;5048903;28;20240;-73
2023/09/14 09:18:11;;;;;;;24.33;7.40;;;;;;;24.52;49.64;95368.41;5068873;28;20264;-74
2023/09/14 09:20:40;;;;;;;22.50;7.28;;;;;;;24.67;49.02;95355.72;5070116;28;20333;-73
2023/09/14 09:23:05;;;;;;;21.08;7.05;;;;;;;24.77;49.24;95362.91;5039110;28;20802;-74
2023/09/14 09:25:47;;;;;;;20.70;6.78;;;;;;;24.72;49.01;95357.56;5071182;28;20228;-73
2023/09/14 09:28:13;;;;;;;23.73;7.00;;;;;;;24.77;48.74;95360.25;5043754;28;20237;-73
2023/09/14 09:30:39;;;;;;;19.45;6.78;;;;;;;24.79;48.89;95352.72;5056101;28;20267;-73
2023/09/14 09:33:04;;;;;;;21.85;6.60;;;;;;;24.86;47.97;95350.56;5065013;28;20228;-74
2023/09/14 09:35:30;;;;;;;18.25;6.90;;;;;;;24.93;48.00;95356.41;5055027;28;20227;-73
2023/09/14 09:37:57;;;;;;;21.17;7.00;;;;;;;25.03;47.15;95358.22;5058837;28;20748;-74
2023/09/14 09:40:27;;;;;;;22.42;6.90;;;;;;;25.13;47.26;95355.44;5038424;28;20236;-74
2023/09/14 09:42:53;;;;;;;20.58;6.55;;;;;;;25.20;47.67;95350.56;5053805;28;20228;-74
2023/09/14 09:45:19;;;;;;;19.95;6.95;;;;;;;25.22;46.77;95354.56;5059635;28;20291;-74
2023/09/14 09:47:44;;;;;;;17.60;6.43;;;;;;;25.36;47.19;95358.19;5055670;28;20232;-73
2023/09/14 09:50:12;;;;;;;20.48;6.90;;;;;;;25.40;46.42;95353.09;5055682;28;20227;-73
2023/09/14 09:52:42;;;;;;;25.33;6.70;;;;;;;25.48;46.56;95351.72;5068822;28;20318;-73
2023/09/14 09:55:15;;;;;;;20.67;6.90;;;;;;;25.64;45.70;95353.16;5037541;28;20254;-74
2023/09/14 09:57:57;;;;;;;20.73;6.65;;;;;;;25.60;45.68;95355.63;5037772;28;20232;-74
2023/09/14 10:00:39;;;;;;;21.48;7.07;;;;;;;25.67;46.07;95352.59;5056141;28;20781;-73
2023/09/14 10:03:04;;;;;;;20.10;6.43;;;;;;;25.78;45.97;95346.84;5055576;28;20705;-73
2023/09/14 10:05:31;;;;;;;19.98;6.10;;;;;;;25.95;45.39;95343.72;5071117;28;20279;-74
2023/09/14 10:08:00;;;;;;;15.88;5.65;;;;;;;26.17;44.43;95346.72;5047358;28;20231;-73
2023/09/14 10:10:26;;;;;;;20.20;6.10;;;;;;;26.30;44.49;95346.00;5047092;28;20376;-73
2023/09/14 10:12:55;;;;;;;18.25;6.28;;;;;;;26.44;43.64;95344.22;5038248;28;20279;-74
2023/09/14 10:15:30;;;;;;;18.67;5.78;;;;;;;26.54;44.29;95341.41;5071688;28;20228;-74
2023/09/14 10:17:56;;;;;;;16.40;6.45;;;;;;;26.65;42.69;95340.19;5056730;28;20462;-73
2023/09/14 10:20:22;;;;;;;15.85;6.25;;;;;;;26.74;42.61;95333.09;5051582;28;20228;-74
2023/09/14 10:22:48;;;;;;;16.70;6.05;;;;;;;26.93;42.41;95333.09;5036212;28;20264;-74
2023/09/14 10:25:14;;;;;;;17.67;5.80;;;;;;;26.97;42.95;95325.25;5046686;28;20633;-73
2023/09/14 10:27:40;;;;;;;22.77;6.75;;;;;;;26.85;42.78;95336.44;5069632;28;20229;-73
2023/09/14 10:30:08;;;;;;;21.30;6.45;;;;;;;26.82;42.93;95320.91;5036752;28;20239;-74
2023/09/14 10:32:37;;;;;;;14.40;5.55;;;;;;;27.01;40.16;95316.31;5066941;28;20243;-74
2023/09/14 10:35:03;;;;;;;14.05;5.63;;;;;;;27.14;41.54;95317.47;5030819;28;20254;-74
2023/09/14 10:37:28;;;;;;;18.33;6.00;;;;;;;27.39;40.95;95309.00;5047798;28;20721;-74
2023/09/14 10:39:54;;;;;;;13.77;5.85;;;;;;;27.64;40.63;95311.25;5058825;28;20295;-75
2023/09/14 10:42:19;;;;;;;17.25;5.90;;;;;;;27.75;38.52;95307.25;5052040;28;20236;-74
2023/09/14 10:44:45;;;;;;;13.10;5.60;;;;;;;27.69;39.51;95313.03;5047300;28;20249;-74
2023/09/14 10:47:10;;;;;;;17.75;6.20;;;;;;;27.55;39.03;95306.84;5068534;28;20236;-73
2023/09/14 10:49:36;;;;;;;17.92;5.72;;;;;;;27.40;39.54;95310.59;5034711;28;20688;-74
2023/09/14 10:52:02;;;;;;;16.35;5.40;;;;;;;27.39;38.92;95304.41;5044918;28;20236;-73
2023/09/14 10:54:29;;;;;;;16.38;5.68;;;;;;;27.39;37.82;95303.63;5059776;28;20910;-75
2023/09/14 10:56:58;;;;;;;12.70;5.65;;;;;;;27.38;39.39;95293.97;5051558;28;20295;-74
2023/09/14 10:59:46;;;;;;;14.88;5.60;;;;;;;27.58;38.80;95287.44;5035619;28;20862;-74
2023/09/14 11:02:11;;;;;;;14.73;6.03;;;;;;;27.79;37.33;95288.66;5061961;28;20231;-74
2023/09/14 11:05:15;;;;;;;13.23;5.88;;;;;;;27.96;38.16;95286.97;5046368;28;20240;-74
2023/09/14 11:07:42;;;;;;;16.25;5.40;;;;;;;27.99;37.60;95285.56;5067986;28;20232;-74
2023/09/14 11:10:07;;;;;;;13.63;6.03;;;;;;;28.16;37.21;95280.38;5067305;28;20252;-74
2023/09/14 11:12:33;;;;;;;15.55;6.13;;;;;;;28.27;36.98;95278.28;5034057;28;20236;-74
2023/09/14 11:15:20;;;;;;;12.25;5.72;;;;;;;28.28;34.74;95274.50;5051995;28;20235;-73
2023/09/14 11:17:47;;;;;;;15.40;5.80;;;;;;;28.45;35.48;95275.44;5025293;28;21007;-72
2023/09/14 11:20:22;;;;;;;12.85;5.80;;;;;;;28.46;35.15;95271.66;5050259;28;20235;-73
2023/09/14 11:22:51;;;;;;;11.05;5.57;;;;;;;28.30;35.27;95272.31;5051550;28;20424;-73
2023/09/14 11:25:36;;;;;;;11.68;5.53;;;;;;;28.24;33.73;95271.59;5048256;28;20224;-73